createdAt,value
2022-09-26T00:00:21.094Z,0.00
2022-09-26T00:01:21.362Z,0.00
2022-09-26T00:02:21.459Z,0.00
2022-09-26T00:03:21.610Z,0.00
2022-09-26T00:04:23.648Z,0.00
2022-09-26T00:05:21.951Z,0.00
2022-09-26T00:06:22.122Z,0.00
2022-09-26T00:07:22.282Z,0.00
2022-09-26T00:08:22.443Z,0.00
2022-09-26T00:09:22.601Z,0.00
2022-09-26T00:10:22.759Z,0.00
2022-09-26T00:11:22.963Z,0.00
2022-09-26T00:12:23.130Z,0.00
2022-09-26T00:13:23.290Z,0.00
2022-09-26T00:14:23.466Z,0.00
2022-09-26T00:15:23.621Z,0.00
2022-09-26T00:16:23.834Z,0.00
2022-09-26T00:17:23.972Z,0.00
2022-09-26T00:18:24.131Z,0.00
2022-09-26T00:19:24.302Z,0.00
2022-09-26T00:20:24.466Z,0.00
2022-09-26T00:21:24.642Z,0.00
2022-09-26T00:22:24.801Z,0.00
2022-09-26T00:23:24.962Z,0.00
2022-09-26T00:24:25.121Z,0.00
2022-09-26T00:25:25.282Z,0.00
2022-09-26T00:26:25.460Z,0.00
2022-09-26T00:27:25.618Z,0.00
2022-09-26T00:28:25.772Z,0.00
2022-09-26T00:29:25.972Z,0.00
2022-09-26T00:30:26.201Z,0.00
2022-09-26T00:31:26.316Z,0.00
2022-09-26T00:32:26.477Z,0.00
2022-09-26T00:33:26.673Z,0.00
2022-09-26T00:34:26.821Z,0.00
2022-09-26T00:35:26.987Z,0.00
2022-09-26T00:36:37.544Z,0.00
2022-09-26T00:37:28.315Z,0.00
2022-09-26T00:38:27.483Z,0.00
2022-09-26T00:39:27.682Z,0.00
2022-09-26T00:40:27.905Z,0.00
2022-09-26T00:41:28.051Z,0.00
2022-09-26T00:42:28.221Z,0.00
2022-09-26T00:43:28.402Z,0.00
2022-09-26T00:44:28.591Z,0.00
2022-09-26T00:45:28.752Z,0.00
2022-09-26T00:46:29.061Z,0.00
2022-09-26T00:47:29.112Z,0.00
2022-09-26T00:48:29.272Z,0.00
2022-09-26T00:49:29.434Z,0.00
2022-09-26T00:50:29.594Z,0.00
2022-09-26T00:51:29.772Z,0.00
2022-09-26T00:52:29.935Z,0.00
2022-09-26T00:53:30.129Z,0.00
2022-09-26T00:54:30.283Z,0.00
2022-09-26T00:55:30.480Z,0.00
2022-09-26T00:56:30.668Z,0.00
2022-09-26T00:57:30.832Z,0.00
2022-09-26T00:58:30.982Z,0.00
2022-09-26T00:59:31.186Z,0.00
2022-09-26T01:00:31.341Z,0.00
2022-09-26T01:01:31.612Z,0.00
2022-09-26T01:02:31.803Z,0.00
2022-09-26T01:03:31.841Z,0.00
2022-09-26T01:04:32.033Z,0.00
2022-09-26T01:05:32.222Z,0.00
2022-09-26T01:06:32.406Z,0.00
2022-09-26T01:07:32.583Z,0.00
2022-09-26T01:08:32.754Z,0.00
2022-09-26T01:09:32.915Z,0.00
2022-09-26T01:10:33.075Z,0.00
2022-09-26T01:11:33.312Z,0.00
2022-09-26T01:12:33.434Z,0.00
2022-09-26T01:13:33.631Z,0.00
2022-09-26T01:14:33.783Z,0.00
2022-09-26T01:15:33.990Z,0.00
2022-09-26T01:16:34.253Z,0.00
2022-09-26T01:17:34.313Z,0.00
2022-09-26T01:18:34.471Z,0.00
2022-09-26T01:19:34.632Z,0.00
2022-09-26T01:20:34.792Z,0.00
2022-09-26T01:21:35.004Z,0.00
2022-09-26T01:22:35.162Z,0.00
2022-09-26T01:23:35.321Z,0.00
2022-09-26T01:24:35.471Z,0.00
2022-09-26T01:25:35.671Z,0.00
2022-09-26T01:26:35.843Z,0.00
2022-09-26T01:27:36.002Z,0.00
2022-09-26T01:28:36.162Z,0.00
2022-09-26T01:29:36.324Z,0.00
2022-09-26T01:30:36.562Z,0.00
2022-09-26T01:31:36.664Z,0.00
2022-09-26T01:32:36.818Z,0.00
2022-09-26T01:33:37.011Z,0.00
2022-09-26T01:34:37.151Z,0.00
2022-09-26T01:35:37.312Z,0.00
2022-09-26T01:36:37.587Z,0.00
2022-09-26T01:37:37.651Z,0.00
2022-09-26T01:38:37.814Z,0.00
2022-09-26T01:39:37.981Z,0.00
2022-09-26T01:40:38.269Z,0.00
2022-09-26T01:41:38.321Z,0.00
2022-09-26T01:42:38.482Z,0.00
2022-09-26T01:43:38.651Z,0.00
2022-09-26T01:44:38.806Z,0.00
2022-09-26T01:45:39.000Z,0.00
2022-09-26T01:46:39.162Z,0.00
2022-09-26T01:47:39.323Z,0.00
2022-09-26T01:48:39.519Z,0.00
2022-09-26T01:49:39.670Z,0.00
2022-09-26T01:50:39.821Z,0.00
2022-09-26T01:51:40.011Z,0.00
2022-09-26T01:52:40.152Z,0.00
2022-09-26T01:53:40.341Z,0.00
2022-09-26T01:54:41.460Z,0.00
2022-09-26T01:55:40.682Z,0.00
2022-09-26T01:56:40.894Z,0.00
2022-09-26T01:57:41.022Z,0.00
2022-09-26T01:58:41.171Z,0.00
2022-09-26T01:59:41.371Z,0.00
2022-09-26T02:00:41.577Z,0.00
2022-09-26T02:01:41.755Z,0.00
2022-09-26T02:02:41.978Z,0.00
2022-09-26T02:03:42.064Z,0.00
2022-09-26T02:04:42.221Z,0.00
2022-09-26T02:05:42.381Z,0.00
2022-09-26T02:06:42.553Z,0.00
2022-09-26T02:07:42.712Z,0.00
2022-09-26T02:08:42.871Z,0.00
2022-09-26T02:09:43.070Z,0.00
2022-09-26T02:10:43.222Z,0.00
2022-09-26T02:11:43.419Z,0.00
2022-09-26T02:12:43.561Z,0.00
2022-09-26T02:13:43.759Z,0.00
2022-09-26T02:14:43.921Z,0.00
2022-09-26T02:15:44.081Z,0.00
2022-09-26T02:16:44.314Z,0.00
2022-09-26T02:17:44.422Z,0.00
2022-09-26T02:18:44.574Z,0.00
2022-09-26T02:19:44.761Z,0.00
2022-09-26T02:20:44.954Z,0.00
2022-09-26T02:21:45.143Z,0.00
2022-09-26T02:22:45.283Z,0.00
2022-09-26T02:23:45.432Z,0.00
2022-09-26T02:24:45.631Z,0.00
2022-09-26T02:25:45.794Z,0.00
2022-09-26T02:26:45.993Z,0.00
2022-09-26T02:27:46.151Z,0.00
2022-09-26T02:28:46.405Z,0.00
2022-09-26T02:29:46.524Z,0.00
2022-09-26T02:30:46.722Z,0.00
2022-09-26T02:31:46.959Z,0.00
2022-09-26T02:32:47.083Z,0.00
2022-09-26T02:33:47.241Z,0.00
2022-09-26T02:34:47.434Z,0.00
2022-09-26T02:35:47.591Z,0.00
2022-09-26T02:36:47.762Z,0.00
2022-09-26T02:37:47.921Z,0.00
2022-09-26T02:38:48.119Z,0.00
2022-09-26T02:39:48.271Z,0.00
2022-09-26T02:40:48.560Z,0.00
2022-09-26T02:41:48.661Z,0.00
2022-09-26T02:42:48.831Z,0.00
2022-09-26T02:43:48.983Z,0.00
2022-09-26T02:44:49.183Z,0.00
2022-09-26T02:45:49.381Z,0.00
2022-09-26T02:46:49.553Z,0.00
2022-09-26T02:47:49.703Z,0.00
2022-09-26T02:48:49.915Z,0.00
2022-09-26T02:49:50.061Z,0.00
2022-09-26T02:50:50.253Z,0.00
2022-09-26T02:51:50.432Z,0.00
2022-09-26T02:52:50.591Z,0.00
2022-09-26T02:53:50.753Z,0.00
2022-09-26T02:54:50.912Z,0.00
2022-09-26T02:55:51.071Z,0.00
2022-09-26T02:56:51.283Z,0.00
2022-09-26T02:57:51.432Z,0.00
2022-09-26T02:58:51.591Z,0.00
2022-09-26T02:59:51.762Z,0.00
2022-09-26T03:00:51.944Z,0.00
2022-09-26T03:01:52.107Z,0.00
2022-09-26T03:02:52.262Z,0.00
2022-09-26T03:03:52.423Z,0.00
2022-09-26T03:04:52.680Z,0.00
2022-09-26T03:05:52.821Z,0.00
2022-09-26T03:06:53.011Z,0.00
2022-09-26T03:07:53.163Z,0.00
2022-09-26T03:08:53.322Z,0.00
2022-09-26T03:09:53.482Z,0.00
2022-09-26T03:10:53.681Z,0.00
2022-09-26T03:11:53.853Z,0.00
2022-09-26T03:12:54.012Z,0.00
2022-09-26T03:13:54.182Z,0.00
2022-09-26T03:14:58.547Z,0.00
2022-09-26T03:15:54.501Z,0.00
2022-09-26T03:16:54.760Z,0.00
2022-09-26T03:17:54.841Z,0.00
2022-09-26T03:18:55.032Z,0.00
2022-09-26T03:19:55.193Z,0.00
2022-09-26T03:20:55.356Z,0.00
2022-09-26T03:21:55.575Z,0.00
2022-09-26T03:22:55.693Z,0.00
2022-09-26T03:23:55.862Z,0.00
2022-09-26T03:24:56.022Z,0.00
2022-09-26T03:25:56.201Z,0.00
2022-09-26T03:26:56.376Z,0.00
2022-09-26T03:27:56.532Z,0.00
2022-09-26T03:28:56.733Z,0.00
2022-09-26T03:29:56.892Z,0.00
2022-09-26T03:30:57.083Z,0.00
2022-09-26T03:31:57.305Z,0.00
2022-09-26T03:32:57.431Z,0.00
2022-09-26T03:33:57.583Z,0.00
2022-09-26T03:34:57.782Z,0.00
2022-09-26T03:35:57.945Z,0.00
2022-09-26T03:36:58.151Z,0.00
2022-09-26T03:37:58.313Z,0.00
2022-09-26T03:38:58.501Z,0.00
2022-09-26T03:39:58.660Z,0.00
2022-09-26T03:40:58.886Z,0.00
2022-09-26T03:41:59.041Z,0.00
2022-09-26T03:42:59.203Z,0.00
2022-09-26T03:43:59.351Z,0.00
2022-09-26T03:44:59.521Z,0.00
2022-09-26T03:45:59.703Z,0.00
2022-09-26T03:46:59.872Z,0.00
2022-09-26T03:48:00.041Z,0.00
2022-09-26T03:49:00.211Z,0.00
2022-09-26T03:50:00.440Z,0.00
2022-09-26T03:51:00.539Z,0.00
2022-09-26T03:52:00.731Z,0.00
2022-09-26T03:53:00.889Z,0.00
2022-09-26T03:54:01.042Z,0.00
2022-09-26T03:55:01.202Z,0.00
2022-09-26T03:56:01.372Z,0.00
2022-09-26T03:57:01.573Z,0.00
2022-09-26T03:58:01.732Z,0.00
2022-09-26T03:59:01.944Z,0.00
2022-09-26T04:00:02.146Z,0.00
2022-09-26T04:01:02.361Z,0.00
2022-09-26T04:02:02.475Z,0.00
2022-09-26T04:03:02.620Z,0.00
2022-09-26T04:04:02.753Z,0.00
2022-09-26T04:05:02.911Z,0.00
2022-09-26T04:06:03.086Z,0.00
2022-09-26T04:07:03.264Z,0.00
2022-09-26T04:08:03.423Z,0.00
2022-09-26T04:09:03.602Z,0.00
2022-09-26T04:10:03.761Z,0.00
2022-09-26T04:11:03.922Z,0.00
2022-09-26T04:12:04.134Z,0.00
2022-09-26T04:13:04.242Z,0.00
2022-09-26T04:14:04.401Z,0.00
2022-09-26T04:15:04.565Z,0.00
2022-09-26T04:16:04.759Z,0.00
2022-09-26T04:17:04.922Z,0.00
2022-09-26T04:18:05.082Z,0.00
2022-09-26T04:19:05.271Z,0.00
2022-09-26T04:20:05.431Z,0.00
2022-09-26T04:21:09.741Z,0.00
2022-09-26T04:22:05.811Z,0.00
2022-09-26T04:23:05.976Z,0.00
2022-09-26T04:24:06.133Z,0.00
2022-09-26T04:25:06.291Z,0.00
2022-09-26T04:26:06.456Z,0.00
2022-09-26T04:27:06.662Z,0.00
2022-09-26T04:28:06.789Z,4.00
2022-09-26T04:29:06.953Z,4.00
2022-09-26T04:30:07.141Z,0.00
2022-09-26T04:31:07.358Z,4.00
2022-09-26T04:32:07.484Z,0.00
2022-09-26T04:33:07.643Z,4.00
2022-09-26T04:34:07.820Z,4.00
2022-09-26T04:35:07.983Z,8.00
2022-09-26T04:36:08.145Z,8.00
2022-09-26T04:37:08.321Z,12.00
2022-09-26T04:38:08.484Z,8.00
2022-09-26T04:39:08.693Z,12.00
2022-09-26T04:40:08.834Z,16.00
2022-09-26T04:41:09.132Z,16.00
2022-09-26T04:42:09.192Z,20.00
2022-09-26T04:43:09.424Z,24.00
2022-09-26T04:44:09.542Z,28.00
2022-09-26T04:45:09.711Z,32.00
2022-09-26T04:46:10.004Z,40.00
2022-09-26T04:47:10.091Z,44.00
2022-09-26T04:48:10.240Z,52.00
2022-09-26T04:49:10.460Z,56.00
2022-09-26T04:50:10.601Z,68.00
2022-09-26T04:51:10.781Z,80.00
2022-09-26T04:52:10.980Z,88.00
2022-09-26T04:53:11.151Z,104.00
2022-09-26T04:54:11.321Z,116.00
2022-09-26T04:55:11.481Z,132.00
2022-09-26T04:56:11.641Z,140.00
2022-09-26T04:57:14.845Z,160.00
2022-09-26T04:58:13.011Z,180.00
2022-09-26T04:59:12.236Z,196.00
2022-09-26T05:00:12.361Z,216.00
2022-09-26T05:01:12.618Z,232.00
2022-09-26T05:02:12.797Z,252.00
2022-09-26T05:03:12.893Z,276.00
2022-09-26T05:04:13.062Z,300.00
2022-09-26T05:05:13.240Z,320.00
2022-09-26T05:06:13.422Z,344.00
2022-09-26T05:07:13.642Z,368.00
2022-09-26T05:08:13.761Z,392.00
2022-09-26T05:09:14.002Z,416.00
2022-09-26T05:10:14.129Z,448.00
2022-09-26T05:11:14.330Z,472.00
2022-09-26T05:12:14.471Z,500.00
2022-09-26T05:13:14.660Z,536.00
2022-09-26T05:14:14.840Z,568.00
2022-09-26T05:15:15.032Z,604.00
2022-09-26T05:16:15.279Z,636.00
2022-09-26T05:17:15.354Z,676.00
2022-09-26T05:18:15.548Z,716.00
2022-09-26T05:19:15.818Z,756.00
2022-09-26T05:20:15.890Z,792.00
2022-09-26T05:21:16.120Z,836.00
2022-09-26T05:22:16.269Z,876.00
2022-09-26T05:23:16.420Z,924.00
2022-09-26T05:24:16.609Z,968.00
2022-09-26T05:25:16.810Z,1004.00
2022-09-26T05:26:16.970Z,1052.00
2022-09-26T05:27:17.119Z,1108.00
2022-09-26T05:28:17.289Z,1172.00
2022-09-26T05:29:17.516Z,1240.00
2022-09-26T05:30:17.640Z,1316.00
2022-09-26T05:31:17.862Z,1400.00
2022-09-26T05:32:18.018Z,1548.00
2022-09-26T05:33:18.163Z,1684.00
2022-09-26T05:34:20.086Z,1712.00
2022-09-26T05:35:18.509Z,1704.00
2022-09-26T05:36:18.709Z,1684.00
2022-09-26T05:37:18.861Z,1688.00
2022-09-26T05:38:19.040Z,1712.00
2022-09-26T05:39:19.240Z,1768.00
2022-09-26T05:40:19.406Z,1776.00
2022-09-26T05:41:19.569Z,1784.00
2022-09-26T05:42:19.737Z,1852.00
2022-09-26T05:43:19.919Z,1896.00
2022-09-26T05:44:20.102Z,1948.00
2022-09-26T05:45:20.279Z,1996.00
2022-09-26T05:46:20.530Z,2056.00
2022-09-26T05:47:20.632Z,2120.00
2022-09-26T05:48:20.812Z,2180.00
2022-09-26T05:49:20.989Z,2236.00
2022-09-26T05:50:21.169Z,2288.00
2022-09-26T05:51:21.387Z,2340.00
2022-09-26T05:52:21.539Z,2392.00
2022-09-26T05:53:21.688Z,2444.00
2022-09-26T05:54:21.860Z,2496.00
2022-09-26T05:55:22.048Z,2548.00
2022-09-26T05:56:22.271Z,2596.00
2022-09-26T05:57:22.399Z,2620.00
2022-09-26T05:58:22.622Z,2652.00
2022-09-26T05:59:22.770Z,2744.00
2022-09-26T06:00:22.933Z,2800.00
2022-09-26T06:01:23.211Z,2852.00
2022-09-26T06:02:23.363Z,2904.00
2022-09-26T06:03:23.482Z,2968.00
2022-09-26T06:04:23.666Z,3024.00
2022-09-26T06:05:23.870Z,3068.00
2022-09-26T06:06:24.021Z,3112.00
2022-09-26T06:07:24.176Z,3160.00
2022-09-26T06:08:24.339Z,3204.00
2022-09-26T06:09:24.530Z,3220.00
2022-09-26T06:10:24.710Z,3224.00
2022-09-26T06:11:24.916Z,3188.00
2022-09-26T06:12:25.069Z,3160.00
2022-09-26T06:13:25.250Z,3208.00
2022-09-26T06:14:25.460Z,3224.00
2022-09-26T06:15:25.588Z,3216.00
2022-09-26T06:16:25.844Z,3200.00
2022-09-26T06:17:25.940Z,3192.00
2022-09-26T06:18:26.120Z,3180.00
2022-09-26T06:19:26.319Z,3232.00
2022-09-26T06:20:26.491Z,3260.00
2022-09-26T06:21:26.689Z,3272.00
2022-09-26T06:22:26.882Z,3316.00
2022-09-26T06:23:27.019Z,3396.00
2022-09-26T06:24:27.207Z,3468.00
2022-09-26T06:25:27.399Z,3516.00
2022-09-26T06:26:27.608Z,3540.00
2022-09-26T06:27:27.739Z,3576.00
2022-09-26T06:28:27.921Z,3612.00
2022-09-26T06:29:28.089Z,3648.00
2022-09-26T06:30:28.331Z,3704.00
2022-09-26T06:31:28.520Z,3856.00
2022-09-26T06:32:28.649Z,3964.00
2022-09-26T06:33:33.292Z,3984.00
2022-09-26T06:34:28.979Z,4032.00
2022-09-26T06:35:29.159Z,4112.00
2022-09-26T06:36:29.371Z,4352.00
2022-09-26T06:37:29.527Z,4332.00
2022-09-26T06:38:29.689Z,4296.00
2022-09-26T06:39:29.879Z,4316.00
2022-09-26T06:40:30.096Z,4360.00
2022-09-26T06:41:30.260Z,4428.00
2022-09-26T06:42:30.411Z,4520.00
2022-09-26T06:43:30.590Z,4532.00
2022-09-26T06:44:30.768Z,4652.00
2022-09-26T06:45:30.989Z,4720.00
2022-09-26T06:46:31.227Z,4780.00
2022-09-26T06:47:31.289Z,4852.00
2022-09-26T06:48:31.479Z,4912.00
2022-09-26T06:49:31.660Z,5100.00
2022-09-26T06:50:31.848Z,4920.00
2022-09-26T06:51:32.039Z,4692.00
2022-09-26T06:52:32.190Z,4820.00
2022-09-26T06:53:32.421Z,4884.00
2022-09-26T06:54:32.551Z,5032.00
2022-09-26T06:55:32.758Z,5032.00
2022-09-26T06:56:32.910Z,4872.00
2022-09-26T06:57:33.087Z,4816.00
2022-09-26T06:58:33.240Z,4808.00
2022-09-26T06:59:33.433Z,4760.00
2022-09-26T07:00:33.644Z,4756.00
2022-09-26T07:01:33.891Z,4820.00
2022-09-26T07:02:33.953Z,4780.00
2022-09-26T07:03:34.129Z,4740.00
2022-09-26T07:04:34.310Z,4756.00
2022-09-26T07:05:34.470Z,4808.00
2022-09-26T07:06:34.671Z,4828.00
2022-09-26T07:07:34.827Z,4868.00
2022-09-26T07:09:01.127Z,5036.00
2022-09-26T07:09:36.180Z,5184.00
2022-09-26T07:10:35.359Z,4956.00
2022-09-26T07:11:56.175Z,4824.00
2022-09-26T07:12:36.709Z,4796.00
2022-09-26T07:13:35.891Z,4804.00
2022-09-26T07:14:36.101Z,4820.00
2022-09-26T07:15:36.249Z,4868.00
2022-09-26T07:16:36.494Z,4968.00
2022-09-26T07:17:36.549Z,5268.00
2022-09-26T07:18:36.733Z,5904.00
2022-09-26T07:19:36.916Z,6128.00
2022-09-26T07:20:37.115Z,5448.00
2022-09-26T07:21:37.286Z,5184.00
2022-09-26T07:22:37.430Z,5084.00
2022-09-26T07:23:37.620Z,5096.00
2022-09-26T07:24:37.800Z,5400.00
2022-09-26T07:25:37.989Z,5908.00
2022-09-26T07:26:38.180Z,5864.00
2022-09-26T07:27:38.330Z,5776.00
2022-09-26T07:28:38.510Z,5560.00
2022-09-26T07:29:38.702Z,5276.00
2022-09-26T07:30:38.908Z,5076.00
2022-09-26T07:31:39.103Z,4980.00
2022-09-26T07:32:39.216Z,4964.00
2022-09-26T07:33:39.390Z,4956.00
2022-09-26T07:34:39.581Z,5024.00
2022-09-26T07:35:39.784Z,5168.00
2022-09-26T07:36:39.922Z,5228.00
2022-09-26T07:37:40.103Z,4948.00
2022-09-26T07:38:40.297Z,4840.00
2022-09-26T07:39:40.472Z,4816.00
2022-09-26T07:40:40.704Z,4828.00
2022-09-26T07:41:40.817Z,4812.00
2022-09-26T07:42:40.992Z,5108.00
2022-09-26T07:45:42.552Z,5116.00
2022-09-26T07:46:41.760Z,5168.00
2022-09-26T07:47:41.943Z,5132.00
2022-09-26T07:48:42.092Z,5024.00
2022-09-26T07:49:42.261Z,4952.00
2022-09-26T07:50:42.462Z,4980.00
2022-09-26T07:51:42.614Z,5120.00
2022-09-26T07:52:42.761Z,5492.00
2022-09-26T07:53:42.952Z,5696.00
2022-09-26T07:54:43.110Z,5820.00
2022-09-26T07:55:43.309Z,6028.00
2022-09-26T07:56:43.482Z,6272.00
2022-09-26T07:57:43.672Z,6440.00
2022-09-26T07:58:43.851Z,6892.00
2022-09-26T07:59:44.032Z,8212.00
2022-09-26T08:00:44.235Z,9520.00
2022-09-26T08:01:44.418Z,11028.00
2022-09-26T08:02:44.639Z,11796.00
2022-09-26T08:03:44.742Z,12076.00
2022-09-26T08:04:44.922Z,12164.00
2022-09-26T08:05:45.112Z,12304.00
2022-09-26T08:06:45.293Z,12820.00
2022-09-26T08:07:45.464Z,13236.00
2022-09-26T08:08:45.677Z,13268.00
2022-09-26T08:09:45.823Z,13908.00
2022-09-26T08:10:46.032Z,14168.00
2022-09-26T08:11:46.173Z,14412.00
2022-09-26T08:12:46.366Z,14652.00
2022-09-26T08:13:46.558Z,14776.00
2022-09-26T08:14:46.704Z,15256.00
2022-09-26T08:15:46.978Z,16256.00
2022-09-26T08:16:47.061Z,16960.00
2022-09-26T08:17:47.225Z,16032.00
2022-09-26T08:18:47.415Z,16352.00
2022-09-26T08:19:47.584Z,16992.00
2022-09-26T08:20:47.786Z,17472.00
2022-09-26T08:21:47.956Z,17504.00
2022-09-26T08:22:48.095Z,17280.00
2022-09-26T08:23:48.286Z,17632.00
2022-09-26T08:24:48.472Z,18016.00
2022-09-26T08:25:48.645Z,18368.00
2022-09-26T08:26:48.856Z,19552.00
2022-09-26T08:27:48.997Z,19744.00
2022-09-26T08:28:49.176Z,19648.00
2022-09-26T08:29:49.368Z,19360.00
2022-09-26T08:30:49.567Z,19808.00
2022-09-26T08:31:49.776Z,21344.00
2022-09-26T08:32:49.891Z,23392.00
2022-09-26T08:33:50.058Z,24640.00
2022-09-26T08:34:50.250Z,26208.00
2022-09-26T08:35:50.437Z,27008.00
2022-09-26T08:36:50.617Z,27360.00
2022-09-26T08:37:50.797Z,28672.00
2022-09-26T08:38:50.987Z,29568.00
2022-09-26T08:39:51.156Z,30624.00
2022-09-26T08:40:51.423Z,31872.00
2022-09-26T08:41:51.506Z,31616.00
2022-09-26T08:42:51.738Z,31552.00
2022-09-26T08:43:52.869Z,31872.00
2022-09-26T08:44:52.059Z,31264.00
2022-09-26T08:45:52.289Z,32128.00
2022-09-26T08:46:52.494Z,31808.00
2022-09-26T08:47:52.570Z,37216.00
2022-09-26T08:48:52.752Z,38272.00
2022-09-26T08:49:52.920Z,38016.00
2022-09-26T08:50:53.131Z,36640.00
2022-09-26T08:51:53.273Z,33472.00
2022-09-26T08:52:53.461Z,31808.00
2022-09-26T08:53:53.627Z,36512.00
2022-09-26T08:54:53.813Z,36448.00
2022-09-26T08:55:54.042Z,38848.00
2022-09-26T08:56:54.162Z,40512.00
2022-09-26T08:57:54.333Z,40320.00
2022-09-26T08:58:54.523Z,38624.00
2022-09-26T08:59:54.716Z,35168.00
2022-09-26T09:00:54.894Z,31232.00
2022-09-26T09:01:55.188Z,30848.00
2022-09-26T09:02:55.465Z,31136.00
2022-09-26T09:03:55.414Z,31808.00
2022-09-26T09:04:55.638Z,34112.00
2022-09-26T09:05:55.774Z,31200.00
2022-09-26T09:06:56.005Z,27936.00
2022-09-26T09:07:56.115Z,27648.00
2022-09-26T09:08:56.337Z,26560.00
2022-09-26T09:09:56.494Z,28448.00
2022-09-26T09:10:56.625Z,31552.00
2022-09-26T09:11:56.815Z,33728.00
2022-09-26T09:12:56.995Z,33472.00
2022-09-26T09:13:57.174Z,36928.00
2022-09-26T09:15:20.585Z,40576.00
2022-09-26T09:15:58.565Z,23936.00
2022-09-26T09:16:57.706Z,44864.00
2022-09-26T09:17:57.890Z,43008.00
2022-09-26T09:18:58.067Z,4940.00
2022-09-26T09:19:58.311Z,3912.00
2022-09-26T09:20:58.448Z,37984.00
2022-09-26T09:21:58.632Z,37728.00
2022-09-26T09:22:58.797Z,36960.00
2022-09-26T09:23:58.988Z,34336.00
2022-09-26T09:24:59.179Z,32320.00
2022-09-26T09:27:52.232Z,33984.00
2022-09-26T09:28:07.151Z,38624.00
2022-09-26T09:29:00.869Z,40992.00
2022-09-26T09:30:00.099Z,35232.00
2022-09-26T09:31:00.326Z,41952.00
2022-09-26T09:32:00.431Z,39648.00
2022-09-26T09:33:00.613Z,39392.00
2022-09-26T09:34:00.828Z,5828.00
2022-09-26T09:35:00.961Z,7080.00
2022-09-26T09:36:01.134Z,53472.00
2022-09-26T09:37:01.331Z,33824.00
2022-09-26T09:38:01.494Z,53376.00
2022-09-26T09:39:01.631Z,54400.00
2022-09-26T09:40:01.824Z,56704.00
2022-09-26T09:41:02.056Z,57344.00
2022-09-26T09:42:02.156Z,57088.00
2022-09-26T09:43:02.322Z,55488.00
2022-09-26T09:44:02.514Z,56608.00
2022-09-26T09:45:02.711Z,55168.00
2022-09-26T09:46:02.975Z,50656.00
2022-09-26T09:47:03.117Z,46880.00
2022-09-26T09:48:03.176Z,48160.00
2022-09-26T09:49:03.380Z,49376.00
2022-09-26T09:50:03.532Z,54688.00
2022-09-26T09:51:03.705Z,54976.00
2022-09-26T09:52:03.896Z,55584.00
2022-09-26T09:53:04.065Z,12564.00
2022-09-26T09:54:04.265Z,11356.00
2022-09-26T09:55:04.406Z,8048.00
2022-09-26T09:56:05.545Z,8244.00
2022-09-26T09:57:04.785Z,7456.00
2022-09-26T09:58:04.951Z,6492.00
2022-09-26T09:59:05.106Z,6284.00
2022-09-26T10:00:05.259Z,6184.00
2022-09-26T10:01:05.450Z,7088.00
2022-09-26T10:02:05.627Z,7324.00
2022-09-26T10:03:05.867Z,8244.00
2022-09-26T10:04:06.058Z,8652.00
2022-09-26T10:05:06.160Z,9412.00
2022-09-26T10:06:08.574Z,8236.00
2022-09-26T10:07:07.497Z,7820.00
2022-09-26T10:08:06.686Z,8168.00
2022-09-26T10:09:38.426Z,9164.00
2022-09-26T10:10:08.046Z,9764.00
2022-09-26T10:11:07.207Z,11312.00
2022-09-26T10:12:07.382Z,12124.00
2022-09-26T10:13:07.548Z,11864.00
2022-09-26T10:14:07.728Z,10960.00
2022-09-26T10:15:07.886Z,10768.00
2022-09-26T10:16:08.121Z,10656.00
2022-09-26T10:17:08.199Z,9776.00
2022-09-26T10:18:25.593Z,9420.00
2022-09-26T10:19:09.559Z,10236.00
2022-09-26T10:20:08.727Z,10868.00
2022-09-26T10:21:08.907Z,11020.00
2022-09-26T10:22:09.059Z,10752.00
2022-09-26T10:23:09.220Z,9628.00
2022-09-26T10:24:09.480Z,8824.00
2022-09-26T10:25:09.577Z,8384.00
2022-09-26T10:26:09.759Z,7912.00
2022-09-26T10:27:09.940Z,7308.00
2022-09-26T10:28:10.120Z,6932.00
2022-09-26T10:29:10.310Z,6020.00
2022-09-26T10:30:10.493Z,5340.00
2022-09-26T10:31:10.804Z,5012.00
2022-09-26T10:32:10.872Z,5176.00
2022-09-26T10:33:11.067Z,6008.00
2022-09-26T10:34:11.273Z,7436.00
2022-09-26T10:35:12.689Z,7464.00
2022-09-26T10:36:11.587Z,6464.00
2022-09-26T10:37:11.781Z,6264.00
2022-09-26T10:38:11.952Z,6688.00
2022-09-26T10:39:12.138Z,7360.00
2022-09-26T10:40:12.393Z,8316.00
2022-09-26T10:41:12.526Z,9828.00
2022-09-26T10:42:12.644Z,12504.00
2022-09-26T10:43:12.823Z,13292.00
2022-09-26T10:44:13.494Z,13416.00
2022-09-26T10:45:13.152Z,13184.00
2022-09-26T10:46:13.364Z,12140.00
2022-09-26T10:47:13.472Z,11596.00
2022-09-26T10:48:13.643Z,11228.00
2022-09-26T10:49:13.812Z,10344.00
2022-09-26T10:50:14.027Z,10228.00
2022-09-26T10:51:14.164Z,8808.00
2022-09-26T10:52:18.396Z,8384.00
2022-09-26T10:53:14.512Z,8604.00
2022-09-26T10:54:14.760Z,7840.00
2022-09-26T10:55:14.873Z,7564.00
2022-09-26T10:56:15.055Z,7664.00
2022-09-26T10:57:15.234Z,8772.00
2022-09-26T10:58:15.499Z,9456.00
2022-09-26T10:59:15.605Z,9492.00
2022-09-26T11:00:15.805Z,10032.00
2022-09-26T11:01:16.017Z,10876.00
2022-09-26T11:02:16.134Z,11124.00
2022-09-26T11:03:16.415Z,11096.00
2022-09-26T11:04:16.517Z,11788.00
2022-09-26T11:05:16.655Z,10776.00
2022-09-26T11:06:20.584Z,8728.00
2022-09-26T11:07:18.015Z,7976.00
2022-09-26T11:08:17.202Z,8492.00
2022-09-26T11:09:17.324Z,8560.00
2022-09-26T11:10:17.506Z,8844.00
2022-09-26T11:11:17.695Z,9392.00
2022-09-26T11:12:17.846Z,9536.00
2022-09-26T11:13:18.028Z,9800.00
2022-09-26T11:14:18.226Z,9548.00
2022-09-26T11:15:18.394Z,9040.00
2022-09-26T11:16:18.620Z,8768.00
2022-09-26T11:17:18.740Z,8344.00
2022-09-26T11:18:18.936Z,8028.00
2022-09-26T11:19:19.077Z,7940.00
2022-09-26T11:20:19.297Z,7928.00
2022-09-26T11:21:28.947Z,8320.00
2022-09-26T11:22:20.606Z,9012.00
2022-09-26T11:23:19.777Z,10008.00
2022-09-26T11:24:19.961Z,10588.00
2022-09-26T11:25:20.118Z,9728.00
2022-09-26T11:26:20.277Z,8376.00
2022-09-26T11:27:20.458Z,7620.00
2022-09-26T11:28:20.658Z,7716.00
2022-09-26T11:29:20.809Z,8140.00
2022-09-26T11:30:21.031Z,8492.00
2022-09-26T11:31:21.193Z,7608.00
2022-09-26T11:32:21.318Z,7980.00
2022-09-26T11:33:21.518Z,8444.00
2022-09-26T11:34:21.687Z,8628.00
2022-09-26T11:35:21.867Z,9816.00
2022-09-26T11:36:22.036Z,10460.00
2022-09-26T11:37:22.206Z,9844.00
2022-09-26T11:38:22.418Z,9864.00
2022-09-26T11:39:22.550Z,9788.00
2022-09-26T11:40:22.748Z,9328.00
2022-09-26T11:41:22.943Z,8848.00
2022-09-26T11:42:23.080Z,8072.00
2022-09-26T11:43:23.269Z,7728.00
2022-09-26T11:44:23.429Z,8380.00
2022-09-26T11:45:23.629Z,8360.00
2022-09-26T11:46:23.868Z,7228.00
2022-09-26T11:47:23.969Z,5892.00
2022-09-26T11:48:24.216Z,4876.00
2022-09-26T11:49:24.322Z,4544.00
2022-09-26T11:50:24.509Z,4776.00
2022-09-26T11:51:24.690Z,5676.00
2022-09-26T11:52:24.870Z,6288.00
2022-09-26T11:53:25.049Z,7028.00
2022-09-26T11:54:25.192Z,8100.00
2022-09-26T11:55:25.372Z,9112.00
2022-09-26T11:56:25.563Z,9712.00
2022-09-26T11:57:25.742Z,9992.00
2022-09-26T11:58:25.969Z,9892.00
2022-09-26T11:59:26.101Z,9296.00
2022-09-26T12:00:26.283Z,8804.00
2022-09-26T12:01:26.467Z,8396.00
2022-09-26T12:02:26.834Z,8064.00
2022-09-26T12:03:26.913Z,7612.00
2022-09-26T12:04:26.982Z,6712.00
2022-09-26T12:05:27.740Z,5784.00
2022-09-26T12:06:27.352Z,5084.00
2022-09-26T12:07:27.535Z,4532.00
2022-09-26T12:08:27.722Z,4116.00
2022-09-26T12:09:27.884Z,3808.00
2022-09-26T12:10:28.061Z,3612.00
2022-09-26T12:11:28.253Z,3280.00
2022-09-26T12:12:28.391Z,2892.00
2022-09-26T12:13:28.583Z,2640.00
2022-09-26T12:14:28.732Z,2836.00
2022-09-26T12:15:28.917Z,2924.00
2022-09-26T12:16:29.132Z,2392.00
2022-09-26T12:17:29.262Z,2096.00
2022-09-26T12:18:29.472Z,2420.00
2022-09-26T12:19:29.613Z,3464.00
2022-09-26T12:20:29.795Z,4320.00
2022-09-26T12:21:29.994Z,5308.00
2022-09-26T12:22:30.164Z,6216.00
2022-09-26T12:23:30.349Z,6952.00
2022-09-26T12:24:30.484Z,7688.00
2022-09-26T12:25:30.675Z,8172.00
2022-09-26T12:26:30.864Z,8468.00
2022-09-26T12:27:31.051Z,9056.00
2022-09-26T12:28:31.241Z,9632.00
2022-09-26T12:29:31.384Z,10040.00
2022-09-26T12:30:31.573Z,10452.00
2022-09-26T12:31:31.955Z,10092.00
2022-09-26T12:32:31.934Z,9220.00
2022-09-26T12:33:32.138Z,8820.00